CST,Max TemperatureF,Mean TemperatureF,Min TemperatureF,Max Dew PointF,MeanDew PointF,Min DewpointF,Max Humidity, Mean Humidity, Min Humidity, Max Sea Level PressureIn, Mean Sea Level PressureIn, Min Sea Level PressureIn, Max VisibilityMiles, Mean VisibilityMiles, Min VisibilityMiles, Max Wind SpeedMPH, Mean Wind SpeedMPH, Max Gust SpeedMPH,PrecipitationIn, CloudCover, Events, WindDirDegrees
2013-7-1,86,80,73,76,75,73,94,79,69,29.94,29.89,29.82,9,7,6,5,4,,0.01,5,Thunderstorm,137
2013-7-2,87,80,72,77,75,73,79,70,61,29.93,29.89,29.82,9,7,6,9,6,,0.00,6,,104
2013-7-3,86,79,72,77,75,72,79,72,66,29.94,29.90,29.84,9,8,6,8,5,,0.00,6,,94
2013-7-4,87,80,73,77,76,72,89,72,66,29.95,29.92,29.86,9,7,6,13,7,,0.00,3,,9
2013-7-5,87,80,72,77,75,73,83,71,60,29.93,29.90,29.84,9,6,0,110,15,,0.00,4,,47
2013-7-6,87,80,72,77,75,73,83,69,60,29.89,29.85,29.79,9,7,6,8,6,,0.00,6,,41
2013-7-7,79,76,72,75,73,72,100,92,80,29.94,29.88,29.82,9,5,3,5,4,,1.02,5,Rain-Thunderstorm,263
2013-7-8,80,78,75,75,74,72,94,86,80,29.96,29.92,29.86,8,6,5,10,4,,0.00,6,Rain-Thunderstorm,109
2013-7-9,87,80,72,77,75,72,89,73,61,29.94,29.91,29.86,9,7,6,10,5,,0.00,6,,348
2013-7-10,87,80,74,78,77,75,94,83,70,29.94,29.88,29.83,9,6,1,15,5,,0.20,6,Rain,337
2013-7-11,80,77,74,75,74,73,94,89,79,29.94,29.90,29.84,9,7,5,107,18,,0.08,6,Rain-Thunderstorm,265
2013-7-12,87,80,72,75,74,73,83,66,59,29.91,29.88,29.82,9,7,6,11,5,,0.00,5,,66
2013-7-13,87,80,72,75,75,73,79,69,60,29.94,29.89,29.82,9,7,6,12,6,,0.00,3,,88
2013-7-14,88,80,71,76,73,72,83,67,53,29.91,29.87,29.81,9,7,6,13,5,,0.00,5,Thunderstorm,143
2013-7-15,87,80,73,77,75,73,94,75,61,29.89,29.85,29.80,8,6,6,13,6,,0.01,6,Rain,68
2013-7-16,81,77,73,75,73,71,94,83,74,29.93,29.86,29.78,9,7,6,9,5,,0.08,5,Rain-Thunderstorm,283
2013-7-17,89,81,73,79,75,71,94,77,59,29.90,29.84,29.76,9,7,6,16,6,,0.00,5,,334
2013-7-18,86,80,74,75,74,72,94,74,59,29.91,29.87,29.82,9,7,6,9,5,,0.00,6,,351
2013-7-19,83,78,74,77,75,73,94,83,74,29.94,29.88,29.81,9,7,6,10,6,,0.02,5,Rain,300
2013-7-20,84,78,73,77,74,72,94,78,65,29.91,29.85,29.78,9,7,6,8,4,,0.00,6,Thunderstorm,328
2013-7-21,83,78,73,76,75,72,94,85,71,29.90,29.86,29.82,9,7,6,10,3,,0.03,5,Rain,337
2013-7-22,82,78,73,76,75,73,94,87,79,29.94,29.92,29.89,9,6,5,8,4,,0.16,6,Rain-Thunderstorm,311
2013-7-23,86,79,72,75,73,72,94,78,61,29.92,29.89,29.86,9,7,6,12,6,,0.00,6,Rain-Thunderstorm,319
2013-7-24,86,80,73,77,76,73,94,83,71,29.86,29.83,29.80,9,7,4,12,4,,0.02,5,Rain-Thunderstorm,299
2013-7-25,86,80,75,77,76,73,94,80,68,29.87,29.84,29.81,9,6,6,9,5,,0.00,4,,22
2013-7-26,80,76,72,75,73,72,94,90,79,30.00,29.96,29.89,9,5,2,7,5,,1.10,7,Rain,247
2013-7-27,77,74,72,75,73,71,94,92,88,29.97,29.92,29.85,9,5,1,15,5,26,1.57,6,Rain,244
2013-7-28,86,79,72,75,74,72,94,74,61,29.93,29.88,29.82,9,7,6,8,5,,0.00,5,,40
2013-7-29,80,77,74,75,74,73,94,89,79,30.00,29.95,29.88,9,7,5,6,4,,0.20,6,Rain-Thunderstorm,285
2013-7-30,79,75,71,75,73,70,94,88,83,30.04,29.97,29.89,9,6,3,7,4,,0.24,6,Rain-Thunderstorm,249
2013-7-31,83,78,73,74,73,72,94,80,66,30.01,29.94,29.87,9,7,6,10,6,,0.04,6,,317